Startpagina
METAR-TAF:

METAR-TAF

Vliegvelden :

Flughafen Mönchengladbach

Mönchengladbach, Duitsland

breedte: 51-13-49N, lengte: 006-30-16E, hoogte: 38 m

Actueel weer

Dit bericht is 13 minuten geleden gemaakt, om 08:50 UTC
Wind 2 kt uit variabele richting
Temperatuur 17°C
Vochtigheid 68%
Druk 1016 hPa
Zicht: 7000 m
Geheel bewolkt op 2800 ft

METAR: EDLN 170850Z VRB02KT 7000 OVC028 17/11 Q1016

Tijdstip: 11:03 (09:03 UTC)

Verwachting

Dit bericht is 1 uur en het 3 minuten geleden gemaakt, om 08:00 UTC
Verwachting geldig van 17 om 09 UTC tot 17 om 18 UTC
Wind 3 kt uit variabele richting
Zicht: 7000 m
Gebroken wolken op 3000 ft

TAF: EDLN 170800Z 1709/1718 VRB03KT 7000 BKN030

Waarnemingen en weersverwachtingen van meer dan 4000 vliegvelden (METAR en TAF).

De beschikbare stations zijn de gele en rode punten op de kaart.

Ga met uw muis naar het station om de naam te zien.

Klik dan om waarnemingen en weersverwachtingen te zien.

kaart wijzigen: klik op de groene knoppen met een zwart kruis om in te zoomen, op de groene knop met een streepje om uit te zoomen of op de groene pijlen voor aangrenzende kaarten.


METAR-TAF: